Time;durP1;ratioP1;P1;durP2;ratioP2;P2;SDS_P1;SDS_P2;PMS_P1;PMS_P2;Temp;Humidity;BMP_temperature;BMP_pressure;BME280_temperature;BME280_humidity;BME280_pressure;Samples;Min_cycle;Max_cycle;Signal;HPM_P1;HPM_P2
2024/04/14 00:01:57;;;;;;;82.50;78.00;;;23.10;1.00;;;;;;2613030;39;20577;-71
2024/04/14 00:04:23;;;;;;;82.63;78.13;;;23.10;1.00;;;;;;2612938;54;20182;-71
2024/04/14 00:06:49;;;;;;;82.80;78.20;;;23.10;1.00;;;;;;2612433;47;20175;-71
2024/04/14 00:09:15;;;;;;;82.17;77.77;;;23.10;1.00;;;;;;2614359;54;20166;-71
2024/04/14 00:11:40;;;;;;;83.47;78.87;;;23.10;1.00;;;;;;2614650;47;20158;-71
2024/04/14 00:14:06;;;;;;;83.17;78.67;;;23.10;1.00;;;;;;2613838;54;20427;-71
2024/04/14 00:16:32;;;;;;;83.50;78.90;;;23.10;1.00;;;;;;2613275;54;20200;-72
2024/04/14 00:18:57;;;;;;;83.20;78.70;;;23.10;1.00;;;;;;2613926;54;20167;-71
2024/04/14 00:21:23;;;;;;;83.03;78.50;;;23.10;1.00;;;;;;2613638;54;20671;-71
2024/04/14 00:23:50;;;;;;;83.30;78.80;;;23.10;1.00;;;;;;2613840;54;20198;-71
2024/04/14 00:26:15;;;;;;;84.13;79.53;;;23.10;1.00;;;;;;2613952;54;20162;-71
2024/04/14 00:28:41;;;;;;;83.90;79.30;;;23.10;1.00;;;;;;2613790;47;20483;-71
2024/04/14 00:31:07;;;;;;;83.67;79.07;;;23.10;1.00;;;;;;2613862;47;20202;-71
2024/04/14 00:33:34;;;;;;;83.50;78.97;;;23.10;1.00;;;;;;2613723;54;20170;-71
2024/04/14 00:36:03;;;;;;;82.70;78.20;;;23.10;1.00;;;;;;2614034;54;20161;-71
2024/04/14 00:38:29;;;;;;;83.03;78.47;;;23.00;1.00;;;;;;2614061;51;20418;-71
2024/04/14 00:40:55;;;;;;;83.97;79.37;;;23.00;1.00;;;;;;2614802;31;20844;-72
2024/04/14 00:43:21;;;;;;;83.73;79.10;;;23.00;1.00;;;;;;2613720;54;20704;-71
2024/04/14 00:45:46;;;;;;;83.70;79.10;;;23.00;1.00;;;;;;2613302;54;20275;-71
2024/04/14 00:48:13;;;;;;;83.30;78.70;;;23.00;1.00;;;;;;2613852;54;20169;-71
2024/04/14 00:50:40;;;;;;;83.20;78.60;;;23.00;1.00;;;;;;2614019;54;20184;-70
2024/04/14 00:53:07;;;;;;;83.30;78.70;;;23.00;1.00;;;;;;2614109;54;20447;-71
2024/04/14 00:55:34;;;;;;;83.50;78.90;;;23.00;1.00;;;;;;2613509;54;20410;-74
2024/04/14 00:58:02;;;;;;;84.00;79.40;;;23.00;1.00;;;;;;2614366;39;20790;-70
2024/04/14 01:00:29;;;;;;;84.00;79.40;;;23.00;1.00;;;;;;2612557;47;20431;-70
2024/04/14 01:02:55;;;;;;;84.20;79.50;;;23.00;1.00;;;;;;2613515;39;21176;-70
2024/04/14 01:05:25;;;;;;;83.40;78.80;;;23.00;1.00;;;;;;2612945;47;20427;-69
2024/04/14 01:07:51;;;;;;;83.43;78.83;;;23.00;1.00;;;;;;2612877;54;20423;-69
2024/04/14 01:10:18;;;;;;;83.80;79.20;;;23.00;1.00;;;;;;2613525;54;20979;-70
2024/04/14 01:12:44;;;;;;;84.07;79.47;;;23.00;1.00;;;;;;2613697;54;20399;-69
2024/04/14 01:15:10;;;;;;;83.37;78.87;;;23.00;1.00;;;;;;2613816;54;20445;-70
2024/04/14 01:17:36;;;;;;;83.20;78.70;;;23.00;1.00;;;;;;2613404;54;20426;-69
2024/04/14 01:20:02;;;;;;;83.50;78.90;;;23.00;1.00;;;;;;2613716;54;20965;-68
2024/04/14 01:22:28;;;;;;;83.43;78.83;;;23.00;1.00;;;;;;2613642;54;20176;-70
2024/04/14 01:25:11;;;;;;;83.33;78.73;;;23.00;1.00;;;;;;2613719;54;20728;-69
2024/04/14 01:27:40;;;;;;;83.70;79.10;;;23.00;1.00;;;;;;2613600;54;20662;-69
2024/04/14 01:30:06;;;;;;;83.33;78.73;;;22.90;1.00;;;;;;2613395;54;21010;-70
2024/04/14 01:32:39;;;;;;;83.70;79.10;;;23.00;1.00;;;;;;2613785;54;20392;-70
2024/04/14 01:35:06;;;;;;;83.37;78.87;;;23.00;1.00;;;;;;2613572;47;20510;-70
2024/04/14 01:37:33;;;;;;;83.00;78.50;;;22.90;1.00;;;;;;2613011;47;20430;-70
2024/04/14 01:39:58;;;;;;;84.30;79.70;;;22.90;1.00;;;;;;2613664;54;20463;-69
2024/04/14 01:42:24;;;;;;;83.77;79.17;;;22.90;1.00;;;;;;2613520;47;20435;-70
2024/04/14 01:44:50;;;;;;;83.97;79.37;;;22.90;1.00;;;;;;2613579;54;20154;-70
2024/04/14 01:47:16;;;;;;;83.50;78.90;;;22.90;1.00;;;;;;2613098;54;20164;-71
2024/04/14 01:49:42;;;;;;;84.40;79.70;;;22.90;1.00;;;;;;2613607;54;20143;-71
2024/04/14 01:52:08;;;;;;;82.93;78.43;;;22.90;1.00;;;;;;2613602;54;20494;-71
2024/04/14 01:54:33;;;;;;;83.50;78.90;;;22.90;1.00;;;;;;2613607;54;20182;-71
2024/04/14 01:56:59;;;;;;;83.57;79.07;;;22.90;1.00;;;;;;2613416;54;20158;-66
2024/04/14 01:59:25;;;;;;;83.90;79.30;;;22.90;1.00;;;;;;2612810;47;20170;-66
2024/04/14 02:01:51;;;;;;;82.80;78.30;;;22.90;1.00;;;;;;2612468;54;20419;-66
2024/04/14 02:04:17;;;;;;;83.50;79.00;;;22.90;1.00;;;;;;2612558;39;20947;-66
2024/04/14 02:06:43;;;;;;;83.30;78.80;;;22.90;1.00;;;;;;2612221;54;20257;-71
2024/04/14 02:09:09;;;;;;;83.10;78.60;;;22.90;1.00;;;;;;2613510;39;20582;-71
2024/04/14 02:11:34;;;;;;;83.30;78.80;;;22.90;1.00;;;;;;2613637;54;20253;-69
2024/04/14 02:14:01;;;;;;;83.07;78.57;;;22.90;1.00;;;;;;2613744;54;21034;-71
2024/04/14 02:16:28;;;;;;;82.77;78.27;;;22.90;1.00;;;;;;2613079;54;20169;-71
2024/04/14 02:18:54;;;;;;;83.67;79.07;;;22.80;1.00;;;;;;2613672;54;21053;-71
2024/04/14 02:21:19;;;;;;;82.90;78.30;;;22.80;1.00;;;;;;2613544;54;20400;-71
2024/04/14 02:23:45;;;;;;;83.13;78.53;;;22.80;1.00;;;;;;2613880;54;20139;-71
2024/04/14 02:26:11;;;;;;;83.53;78.93;;;22.90;1.00;;;;;;2613575;54;20178;-71
2024/04/14 02:28:36;;;;;;;82.73;78.23;;;22.80;1.00;;;;;;2613334;47;20250;-71
2024/04/14 02:31:02;;;;;;;83.10;78.60;;;22.80;1.00;;;;;;2613442;54;20257;-70
2024/04/14 02:33:28;;;;;;;82.30;77.90;;;22.80;1.00;;;;;;2613116;47;20279;-70
2024/04/14 02:35:55;;;;;;;83.80;79.30;;;22.80;1.00;;;;;;2613651;54;20147;-71
2024/04/14 02:38:21;;;;;;;83.40;78.90;;;22.80;1.00;;;;;;2613622;39;20625;-70
2024/04/14 02:41:03;;;;;;;83.37;78.77;;;22.80;1.00;;;;;;2613445;54;20499;-70
2024/04/14 02:43:29;;;;;;;83.17;78.67;;;22.80;1.00;;;;;;2613330;54;20410;-70
2024/04/14 02:45:56;;;;;;;89.47;84.73;;;22.80;1.00;;;;;;2613188;54;20449;-70
2024/04/14 02:48:22;;;;;;;83.17;78.67;;;22.80;1.00;;;;;;2613337;54;20388;-70
2024/04/14 02:50:48;;;;;;;83.00;78.50;;;22.80;1.00;;;;;;2613185;54;20527;-70
2024/04/14 02:53:14;;;;;;;83.60;79.10;;;22.80;1.00;;;;;;2613240;54;20491;-70
2024/04/14 02:55:40;;;;;;;83.80;79.30;;;22.80;1.00;;;;;;2613063;47;20423;-70
2024/04/14 02:58:07;;;;;;;83.67;79.17;;;22.80;1.00;;;;;;2613643;54;20402;-70
2024/04/14 03:00:33;;;;;;;84.53;79.93;;;22.80;1.00;;;;;;2612705;54;21045;-70
2024/04/14 03:02:59;;;;;;;84.00;79.47;;;22.80;1.00;;;;;;2613931;39;20905;-70
2024/04/14 03:05:25;;;;;;;83.70;79.17;;;22.80;1.00;;;;;;2613253;54;20471;-70
2024/04/14 03:07:51;;;;;;;84.40;79.80;;;22.80;1.00;;;;;;2614004;54;20242;-70
2024/04/14 03:10:18;;;;;;;84.10;79.60;;;22.80;1.00;;;;;;2613908;47;20420;-70
2024/04/14 03:12:44;;;;;;;83.70;79.20;;;22.80;1.00;;;;;;2613838;54;20514;-70
2024/04/14 03:15:13;;;;;;;83.93;79.43;;;22.80;1.00;;;;;;2614467;54;20400;-70
2024/04/14 03:17:39;;;;;;;83.70;79.20;;;22.70;1.00;;;;;;2615517;39;20777;-75
2024/04/14 03:20:06;;;;;;;83.67;79.20;;;22.80;1.00;;;;;;2614841;54;20949;-75
2024/04/14 03:22:34;;;;;;;83.80;79.30;;;22.80;1.00;;;;;;2615249;47;20166;-75
2024/04/14 03:25:00;;;;;;;84.00;79.50;;;22.70;1.00;;;;;;2614480;54;20484;-75
2024/04/14 03:27:25;;;;;;;83.67;79.27;;;22.70;1.00;;;;;;2615012;54;20988;-75
2024/04/14 03:29:51;;;;;;;83.27;78.87;;;22.70;1.00;;;;;;2614692;54;20172;-75
2024/04/14 03:32:17;;;;;;;82.97;78.47;;;22.70;1.00;;;;;;2614678;54;20218;-74
2024/04/14 03:34:43;;;;;;;83.43;79.03;;;22.70;1.00;;;;;;2614829;51;20171;-74
2024/04/14 03:37:10;;;;;;;84.07;79.47;;;22.70;1.00;;;;;;2614261;47;21004;-75
2024/04/14 03:39:36;;;;;;;83.57;79.07;;;22.70;1.00;;;;;;2614379;54;20661;-75
2024/04/14 03:42:02;;;;;;;83.63;79.13;;;22.70;1.00;;;;;;2614708;54;20409;-75
2024/04/14 03:44:29;;;;;;;83.10;78.60;;;22.70;1.00;;;;;;2614737;54;20407;-74
2024/04/14 03:46:54;;;;;;;83.67;79.17;;;22.70;1.00;;;;;;2614441;54;20925;-75
2024/04/14 03:49:20;;;;;;;83.73;79.23;;;22.70;1.00;;;;;;2614506;54;20486;-75
2024/04/14 03:51:46;;;;;;;84.20;79.70;;;22.70;1.00;;;;;;2614493;54;20150;-74
2024/04/14 03:54:12;;;;;;;83.70;79.20;;;22.70;1.00;;;;;;2614584;54;20203;-75
2024/04/14 03:56:37;;;;;;;84.00;79.50;;;22.70;1.00;;;;;;2614418;54;20396;-74
2024/04/14 03:59:03;;;;;;;83.13;78.73;;;22.70;1.00;;;;;;2613913;54;20814;-75
2024/04/14 04:01:29;;;;;;;83.87;79.37;;;22.70;1.00;;;;;;2613436;54;20695;-75
2024/04/14 04:03:55;;;;;;;83.50;79.00;;;22.70;1.00;;;;;;2613676;54;20162;-75
2024/04/14 04:06:21;;;;;;;83.40;78.93;;;22.70;1.00;;;;;;2612785;54;20404;-70
2024/04/14 04:08:47;;;;;;;83.60;79.10;;;22.70;1.00;;;;;;2614496;54;20151;-71
2024/04/14 04:11:12;;;;;;;83.37;78.87;;;22.80;1.00;;;;;;2614630;39;20533;-70
2024/04/14 04:13:38;;;;;;;83.40;78.90;;;22.80;1.00;;;;;;2614039;54;20431;-72
2024/04/14 04:16:05;;;;;;;83.70;79.20;;;22.80;1.00;;;;;;2613537;54;20291;-69
2024/04/14 04:18:32;;;;;;;83.70;79.20;;;22.70;1.00;;;;;;2614030;54;20187;-69
2024/04/14 04:21:00;;;;;;;83.50;79.00;;;22.70;1.00;;;;;;2613893;54;20412;-69
2024/04/14 04:23:27;;;;;;;83.90;79.40;;;22.80;1.00;;;;;;2614105;54;20416;-69
2024/04/14 04:25:55;;;;;;;83.73;79.23;;;22.80;1.00;;;;;;2614165;54;20403;-69
2024/04/14 04:28:22;;;;;;;83.00;78.60;;;22.80;1.00;;;;;;2614057;46;20422;-69
2024/04/14 04:30:48;;;;;;;84.10;79.60;;;22.70;1.00;;;;;;2613759;54;20410;-69
2024/04/14 04:33:14;;;;;;;83.90;79.33;;;22.70;1.00;;;;;;2614740;54;20397;-70
2024/04/14 04:35:39;;;;;;;84.20;79.70;;;22.70;1.00;;;;;;2613897;54;20413;-70
2024/04/14 04:38:06;;;;;;;83.80;79.30;;;22.70;1.00;;;;;;2613338;54;20165;-70
2024/04/14 04:40:32;;;;;;;83.50;79.10;;;22.70;1.00;;;;;;2614486;39;20586;-70
2024/04/14 04:42:58;;;;;;;84.10;79.50;;;22.70;1.00;;;;;;2613836;54;20423;-70
2024/04/14 04:45:23;;;;;;;84.63;80.03;;;22.70;1.00;;;;;;2614428;54;20400;-69
2024/04/14 04:47:49;;;;;;;83.57;79.07;;;22.70;1.00;;;;;;2613406;54;20143;-70
2024/04/14 04:50:15;;;;;;;83.47;78.97;;;22.70;1.00;;;;;;2613848;54;20143;-70
2024/04/14 04:52:40;;;;;;;83.90;79.40;;;22.70;1.00;;;;;;2613724;54;20166;-70
2024/04/14 04:55:06;;;;;;;82.97;78.47;;;22.70;1.00;;;;;;2613934;54;20167;-70
2024/04/14 04:57:32;;;;;;;84.00;79.50;;;22.70;1.00;;;;;;2613928;54;20158;-70
2024/04/14 04:59:58;;;;;;;83.70;79.13;;;22.70;1.00;;;;;;2612395;54;20187;-70
2024/04/14 05:02:23;;;;;;;82.70;78.20;;;22.70;1.00;;;;;;2612756;54;20171;-70
2024/04/14 05:04:55;;;;;;;83.30;78.80;;;22.70;1.00;;;;;;2612484;54;20163;-70
2024/04/14 05:07:20;;;;;;;83.60;79.10;;;22.60;1.00;;;;;;2613171;54;20265;-69
2024/04/14 05:09:52;;;;;;;84.30;79.80;;;22.60;1.00;;;;;;2613824;39;20843;-70
2024/04/14 05:12:18;;;;;;;84.23;79.73;;;22.60;1.00;;;;;;2614039;47;20190;-70
2024/04/14 05:14:44;;;;;;;84.00;79.50;;;22.60;1.00;;;;;;2614448;54;20399;-70
2024/04/14 05:17:09;;;;;;;83.53;79.03;;;22.60;1.00;;;;;;2613305;54;20177;-68
2024/04/14 05:19:35;;;;;;;83.87;79.27;;;22.60;1.00;;;;;;2613652;54;20246;-68
2024/04/14 05:22:00;;;;;;;84.30;79.70;;;22.60;1.00;;;;;;2613283;47;20169;-69
2024/04/14 05:24:26;;;;;;;83.70;79.20;;;22.60;1.00;;;;;;2614427;54;20242;-69
2024/04/14 05:26:52;;;;;;;83.70;79.20;;;22.60;1.00;;;;;;2613752;54;20170;-65
2024/04/14 05:29:17;;;;;;;83.83;79.33;;;22.60;1.00;;;;;;2613858;54;20186;-65
2024/04/14 05:31:43;;;;;;;83.30;78.90;;;22.60;1.00;;;;;;2613450;54;20147;-65
2024/04/14 05:34:09;;;;;;;84.07;79.57;;;22.60;1.00;;;;;;2613995;54;20188;-65
2024/04/14 05:36:34;;;;;;;83.53;79.13;;;22.60;1.00;;;;;;2614732;39;20600;-69
2024/04/14 05:39:00;;;;;;;84.20;79.70;;;22.60;1.00;;;;;;2614230;54;20198;-69
2024/04/14 05:41:26;;;;;;;83.70;79.20;;;22.60;1.00;;;;;;2614181;54;20688;-69
2024/04/14 05:43:51;;;;;;;83.77;79.27;;;22.60;1.00;;;;;;2613992;54;20154;-69
2024/04/14 05:46:17;;;;;;;82.63;78.23;;;22.60;1.00;;;;;;2613400;54;20646;-69
2024/04/14 05:48:43;;;;;;;83.67;79.17;;;22.60;1.00;;;;;;2613924;54;20202;-69
2024/04/14 05:51:08;;;;;;;84.17;79.67;;;22.60;1.00;;;;;;2613793;54;20139;-69
2024/04/14 05:53:34;;;;;;;83.40;79.00;;;22.60;1.00;;;;;;2613175;54;20205;-69
2024/04/14 05:56:00;;;;;;;83.00;78.50;;;22.60;1.00;;;;;;2613420;54;20191;-69
2024/04/14 05:58:25;;;;;;;83.87;79.37;;;22.60;1.00;;;;;;2613390;47;20258;-69
2024/04/14 06:00:51;;;;;;;83.03;78.53;;;22.60;1.00;;;;;;2611589;54;20159;-68
2024/04/14 06:03:17;;;;;;;83.07;78.57;;;22.60;1.00;;;;;;2612695;54;20166;-68
2024/04/14 06:05:43;;;;;;;82.60;78.20;;;22.60;1.00;;;;;;2613622;39;20556;-68
2024/04/14 06:08:08;;;;;;;82.67;78.27;;;22.60;1.00;;;;;;2612466;39;20501;-68
2024/04/14 06:10:34;;;;;;;82.43;78.03;;;22.60;1.00;;;;;;2612996;54;20159;-69
2024/04/14 06:13:00;;;;;;;82.30;77.90;;;22.60;1.00;;;;;;2612697;54;20395;-69
2024/04/14 06:15:26;;;;;;;83.80;79.30;;;22.60;1.00;;;;;;2613666;54;20155;-69
2024/04/14 06:17:52;;;;;;;94.13;88.47;;;22.60;1.00;;;;;;2612943;47;20166;-66
2024/04/14 06:20:17;;;;;;;93.60;87.90;;;22.70;1.00;;;;;;2613606;39;20936;-66
2024/04/14 06:22:43;;;;;;;93.90;88.20;;;22.80;1.00;;;;;;2613276;54;20626;-66
2024/04/14 06:25:08;;;;;;;95.30;89.70;;;22.90;1.00;;;;;;2613469;54;20203;-66
2024/04/14 06:27:34;;;;;;;93.20;87.57;;;23.00;1.00;;;;;;2614105;54;20190;-77
2024/04/14 06:30:00;;;;;;;93.30;87.60;;;23.10;1.00;;;;;;2613682;54;20147;-73
2024/04/14 06:32:26;;;;;;;93.80;88.10;;;23.20;1.00;;;;;;2613412;54;20158;-74
2024/04/14 06:34:51;;;;;;;97.90;91.77;;;23.20;1.00;;;;;;2613443;54;20178;-67
2024/04/14 06:37:18;;;;;;;104.90;99.00;;;23.40;1.00;;;;;;2613548;47;20195;-74
2024/04/14 06:39:44;;;;;;;97.63;92.33;;;23.40;1.00;;;;;;2614113;54;20151;-73
2024/04/14 06:42:09;;;;;;;96.37;91.17;;;23.40;1.00;;;;;;2613525;54;20447;-75
2024/04/14 06:44:35;;;;;;;106.30;100.20;;;23.40;1.00;;;;;;2615010;54;20916;-72
2024/04/14 06:47:01;;;;;;;107.40;101.20;;;23.40;1.00;;;;;;2613931;54;20253;-69
2024/04/14 06:49:28;;;;;;;97.00;92.00;;;23.40;1.00;;;;;;2613839;54;20688;-69
2024/04/14 06:51:54;;;;;;;101.53;96.10;;;23.40;1.00;;;;;;2614102;54;20151;-68
2024/04/14 06:54:19;;;;;;;94.30;89.60;;;23.50;1.00;;;;;;2613910;54;20993;-69
2024/04/14 06:56:45;;;;;;;93.00;88.40;;;23.50;1.00;;;;;;2613947;54;20704;-70
2024/04/14 06:59:11;;;;;;;90.17;85.67;;;23.60;1.00;;;;;;2613688;54;20159;-69
2024/04/14 07:01:36;;;;;;;92.70;87.90;;;23.70;1.00;;;;;;2612941;39;20539;-68
2024/04/14 07:04:02;;;;;;;91.80;87.20;;;23.70;1.00;;;;;;2613267;54;20700;-68
2024/04/14 07:06:28;;;;;;;101.07;95.67;;;23.80;1.00;;;;;;2613925;54;20250;-68
2024/04/14 07:08:54;;;;;;;89.33;84.83;;;23.80;1.00;;;;;;2613464;47;20711;-68
2024/04/14 07:11:19;;;;;;;86.90;82.50;;;23.80;1.00;;;;;;2611895;54;20687;-68
2024/04/14 07:13:45;;;;;;;102.27;96.13;;;23.70;1.00;;;;;;2612127;54;20170;-68
2024/04/14 07:16:11;;;;;;;94.80;89.40;;;23.80;1.00;;;;;;2613303;47;20189;-71
2024/04/14 07:18:36;;;;;;;94.50;89.10;;;23.70;1.00;;;;;;2614076;47;20165;-72
2024/04/14 07:21:03;;;;;;;95.97;90.57;;;23.70;1.00;;;;;;2613482;54;20151;-71
2024/04/14 07:23:30;;;;;;;98.20;92.60;;;23.70;1.00;;;;;;2613992;54;20391;-71
2024/04/14 07:25:56;;;;;;;95.40;89.90;;;23.60;1.00;;;;;;2613498;54;20238;-71
2024/04/14 07:28:22;;;;;;;95.20;89.70;;;23.60;1.00;;;;;;2613204;54;20399;-67
2024/04/14 07:30:48;;;;;;;98.50;92.80;;;23.60;1.00;;;;;;2613745;39;20616;-71
2024/04/14 07:33:15;;;;;;;95.97;90.37;;;23.50;1.00;;;;;;2613251;54;20400;-71
2024/04/14 07:35:42;;;;;;;95.07;89.47;;;23.50;1.00;;;;;;2614089;31;20869;-68
2024/04/14 07:38:07;;;;;;;93.97;88.37;;;23.50;1.00;;;;;;2613392;39;20836;-69
2024/04/14 07:40:33;;;;;;;101.00;94.80;;;23.60;1.00;;;;;;2613222;54;20433;-70
2024/04/14 07:42:59;;;;;;;101.40;95.20;;;23.60;1.00;;;;;;2613311;54;20147;-69
2024/04/14 07:45:25;;;;;;;100.33;94.23;;;23.50;1.00;;;;;;2613663;54;20162;-69
2024/04/14 07:47:50;;;;;;;99.00;92.90;;;23.50;1.00;;;;;;2614498;54;20495;-72
2024/04/14 07:50:16;;;;;;;96.33;90.53;;;23.50;1.00;;;;;;2613805;54;20226;-71
2024/04/14 07:52:42;;;;;;;93.73;88.23;;;23.50;1.00;;;;;;2613910;47;20170;-70
2024/04/14 07:55:09;;;;;;;93.17;87.67;;;23.50;1.00;;;;;;2613844;49;20182;-70
2024/04/14 07:57:34;;;;;;;101.43;94.93;;;23.40;1.00;;;;;;2614101;54;20155;-67
2024/04/14 08:00:00;;;;;;;93.53;87.97;;;23.40;1.00;;;;;;2613772;39;20516;-66
2024/04/14 08:02:26;;;;;;;90.13;84.83;;;23.40;1.00;;;;;;2612347;54;20170;-66
2024/04/14 08:04:54;;;;;;;90.80;85.50;;;23.00;1.00;;;;;;2613511;54;20151;-66
2024/04/14 08:07:19;;;;;;;90.63;85.33;;;22.70;1.00;;;;;;2613896;54;20391;-67
2024/04/14 08:09:45;;;;;;;90.37;85.07;;;22.80;1.00;;;;;;2613956;39;20727;-67
2024/04/14 08:12:11;;;;;;;91.93;86.53;;;22.90;1.00;;;;;;2613343;39;20503;-68
2024/04/14 08:14:36;;;;;;;90.80;85.50;;;23.00;1.00;;;;;;2613857;54;20150;-67
2024/04/14 08:17:02;;;;;;;91.17;85.77;;;23.00;1.00;;;;;;2613730;54;20167;-67
2024/04/14 08:19:28;;;;;;;91.17;85.77;;;23.10;1.00;;;;;;2614001;54;20143;-68
2024/04/14 08:21:53;;;;;;;91.57;86.27;;;23.10;1.00;;;;;;2613734;47;20162;-67
2024/04/14 08:24:19;;;;;;;91.53;86.23;;;23.20;1.00;;;;;;2613529;47;20173;-67
2024/04/14 08:26:45;;;;;;;91.77;86.40;;;23.20;1.00;;;;;;2613562;54;20170;-67
2024/04/14 08:29:10;;;;;;;91.00;85.70;;;23.20;1.00;;;;;;2613369;54;20189;-65
2024/04/14 08:31:36;;;;;;;90.60;85.30;;;23.20;1.00;;;;;;2613700;54;20175;-65
2024/04/14 08:34:02;;;;;;;91.60;86.20;;;23.20;1.00;;;;;;2613365;39;20580;-67
2024/04/14 08:36:27;;;;;;;92.30;86.90;;;23.30;1.00;;;;;;2613645;54;20143;-67
2024/04/14 08:38:53;;;;;;;90.90;85.60;;;23.30;1.00;;;;;;2613443;47;20197;-67
2024/04/14 08:41:23;;;;;;;91.20;85.80;;;23.30;1.00;;;;;;2612673;39;20554;-67
2024/04/14 08:43:50;;;;;;;91.40;86.00;;;23.30;1.00;;;;;;2612944;54;20941;-67
2024/04/14 08:46:17;;;;;;;92.00;86.60;;;23.30;1.00;;;;;;2614189;39;20826;-67
2024/04/14 08:48:46;;;;;;;91.97;86.57;;;23.30;1.00;;;;;;2613381;54;20427;-65
2024/04/14 08:51:16;;;;;;;91.30;86.00;;;23.30;1.00;;;;;;2612612;47;20475;-65
2024/04/14 08:53:42;;;;;;;96.90;90.90;;;23.30;1.00;;;;;;2612577;54;20940;-62
2024/04/14 08:56:09;;;;;;;95.87;89.97;;;23.40;1.00;;;;;;2613592;54;20166;-66
2024/04/14 08:58:38;;;;;;;96.00;90.10;;;23.50;1.00;;;;;;2613492;39;20842;-66
2024/04/14 09:01:09;;;;;;;95.97;90.17;;;23.50;1.00;;;;;;2612828;54;20423;-65
2024/04/14 09:03:35;;;;;;;95.23;89.43;;;23.60;1.00;;;;;;2611386;50;20410;-64
2024/04/14 09:06:05;;;;;;;94.87;89.13;;;23.60;1.00;;;;;;2613662;47;20419;-60
2024/04/14 09:08:32;;;;;;;95.80;90.00;;;23.70;1.00;;;;;;2613111;47;20166;-61
2024/04/14 09:10:58;;;;;;;96.00;90.20;;;23.80;1.00;;;;;;2613434;54;20526;-61
2024/04/14 09:13:28;;;;;;;96.13;90.33;;;23.80;1.00;;;;;;2613425;54;20941;-61
2024/04/14 09:15:58;;;;;;;109.30;102.90;;;23.80;1.00;;;;;;2613717;39;20868;-73
2024/04/14 09:18:23;;;;;;;106.87;100.67;;;23.90;1.00;;;;;;2614254;54;20170;-77
2024/04/14 09:20:49;;;;;;;105.70;99.63;;;23.90;1.00;;;;;;2614090;54;20420;-73
2024/04/14 09:23:15;;;;;;;107.70;101.60;;;23.90;1.00;;;;;;2613034;54;20226;-73
2024/04/14 09:25:43;;;;;;;106.20;100.20;;;23.90;1.00;;;;;;2613105;31;20977;-74
2024/04/14 09:28:11;;;;;;;106.27;100.27;;;23.90;1.00;;;;;;2613322;54;20239;-75
2024/04/14 09:30:38;;;;;;;102.07;96.17;;;23.90;1.00;;;;;;2613777;54;20399;-80
2024/04/14 09:33:04;;;;;;;101.40;95.50;;;23.90;1.00;;;;;;2613728;47;20450;-75
2024/04/14 09:35:30;;;;;;;99.77;93.97;;;24.00;1.00;;;;;;2614008;54;20440;-78
2024/04/14 09:37:56;;;;;;;102.90;96.60;;;24.00;1.00;;;;;;2612851;54;20448;-71
2024/04/14 09:40:25;;;;;;;105.90;99.30;;;24.10;1.00;;;;;;2612097;54;20865;-68
2024/04/14 09:42:57;;;;;;;104.03;97.53;;;24.30;1.00;;;;;;2611732;54;20692;-68
2024/04/14 09:45:25;;;;;;;99.80;94.00;;;24.40;1.00;;;;;;2611755;54;20442;-66
2024/04/14 09:47:53;;;;;;;105.27;99.13;;;24.50;1.00;;;;;;2612221;54;20398;-66
2024/04/14 09:50:23;;;;;;;93.87;88.27;;;24.60;1.00;;;;;;2612328;54;20438;-68
2024/04/14 09:52:49;;;;;;;91.57;86.27;;;24.60;1.00;;;;;;2612372;54;20550;-67
2024/04/14 09:55:16;;;;;;;94.37;88.87;;;24.50;1.00;;;;;;2613271;54;20410;-67
2024/04/14 09:57:41;;;;;;;94.47;88.87;;;24.60;1.00;;;;;;2612668;54;20478;-68
2024/04/14 10:00:09;;;;;;;92.17;86.67;;;24.50;1.00;;;;;;2612874;47;20431;-68
2024/04/14 10:02:41;;;;;;;93.90;88.40;;;24.50;1.00;;;;;;2611357;47;20170;-67
2024/04/14 10:05:09;;;;;;;94.33;88.83;;;24.60;1.00;;;;;;2612264;54;20606;-68
2024/04/14 10:07:36;;;;;;;95.30;89.60;;;24.60;1.00;;;;;;2612649;54;20531;-69
2024/04/14 10:10:05;;;;;;;92.17;86.90;;;24.60;1.00;;;;;;2613746;54;20448;-68
2024/04/14 10:12:33;;;;;;;91.40;86.20;;;24.60;1.00;;;;;;2612861;39;20795;-68
2024/04/14 10:15:05;;;;;;;91.83;86.60;;;24.70;1.00;;;;;;2612732;54;20945;-68
2024/04/14 10:17:33;;;;;;;91.60;86.30;;;24.70;1.00;;;;;;2611950;46;20431;-70
2024/04/14 10:20:03;;;;;;;91.93;86.63;;;24.70;1.00;;;;;;2612075;47;20525;-68
2024/04/14 10:22:30;;;;;;;90.97;85.67;;;24.80;1.00;;;;;;2612712;54;20450;-69
2024/04/14 10:24:56;;;;;;;91.10;85.80;;;24.80;1.00;;;;;;2612241;54;20534;-68
2024/04/14 10:27:23;;;;;;;94.57;89.13;;;24.80;1.00;;;;;;2612550;54;20407;-73
2024/04/14 10:29:57;;;;;;;91.63;86.33;;;24.80;1.00;;;;;;2612367;54;20249;-74
2024/04/14 10:32:22;;;;;;;90.83;85.63;;;24.80;1.00;;;;;;2613325;54;20400;-75
2024/04/14 10:34:48;;;;;;;94.90;89.23;;;24.90;1.00;;;;;;2613398;54;20423;-73
2024/04/14 10:37:28;;;;;;;90.10;85.10;;;24.90;1.00;;;;;;2612822;54;20258;-71
2024/04/14 10:39:55;;;;;;;89.70;84.60;;;24.90;1.00;;;;;;2612648;47;20253;-71
2024/04/14 10:42:24;;;;;;;89.10;84.10;;;24.90;1.00;;;;;;2612594;54;20419;-72
2024/04/14 10:44:50;;;;;;;89.33;84.33;;;24.90;1.00;;;;;;2613416;54;21320;-74
2024/04/14 10:47:17;;;;;;;87.57;82.67;;;24.90;1.00;;;;;;2612869;54;20953;-76
2024/04/14 10:49:46;;;;;;;90.27;85.07;;;24.90;1.00;;;;;;2613217;47;20419;-75
2024/04/14 10:52:12;;;;;;;91.07;85.87;;;25.00;1.00;;;;;;2613857;50;20395;-74
2024/04/14 10:54:39;;;;;;;92.00;86.80;;;25.00;1.00;;;;;;2613488;47;20530;-74
2024/04/14 10:57:04;;;;;;;89.60;84.50;;;24.90;1.00;;;;;;2612950;54;20155;-70
2024/04/14 10:59:30;;;;;;;89.20;84.20;;;24.90;1.00;;;;;;2612960;54;20503;-73
2024/04/14 11:01:56;;;;;;;89.80;84.80;;;25.00;1.00;;;;;;2612115;39;20646;-72
2024/04/14 11:04:22;;;;;;;90.00;85.00;;;25.00;1.00;;;;;;2613765;54;20224;-72
2024/04/14 11:06:48;;;;;;;90.00;84.90;;;24.90;1.00;;;;;;2612991;39;20799;-72
2024/04/14 11:09:15;;;;;;;88.43;83.37;;;25.00;1.00;;;;;;2612987;54;20447;-73
2024/04/14 11:11:41;;;;;;;92.03;86.43;;;25.00;1.00;;;;;;2613532;39;20589;-72
2024/04/14 11:14:07;;;;;;;92.00;86.50;;;25.00;1.00;;;;;;2613507;39;21441;-69
2024/04/14 11:16:33;;;;;;;92.27;86.83;;;25.20;1.00;;;;;;2612935;47;20411;-70
2024/04/14 11:18:59;;;;;;;90.30;85.00;;;25.30;1.00;;;;;;2612530;54;20159;-70
2024/04/14 11:21:26;;;;;;;87.50;82.50;;;25.40;1.00;;;;;;2613256;54;20143;-72
2024/04/14 11:23:52;;;;;;;88.70;83.70;;;25.40;1.00;;;;;;2614169;54;20151;-70
2024/04/14 11:26:18;;;;;;;89.73;84.63;;;25.30;1.00;;;;;;2613657;47;20518;-68
2024/04/14 11:28:45;;;;;;;89.40;84.30;;;25.00;1.00;;;;;;2613451;47;21285;-68
2024/04/14 11:31:11;;;;;;;91.50;86.20;;;24.90;1.00;;;;;;2613907;39;20549;-66
2024/04/14 11:33:40;;;;;;;89.80;84.60;;;24.70;1.00;;;;;;2613355;47;20426;-67
2024/04/14 11:36:10;;;;;;;89.90;84.70;;;24.60;1.00;;;;;;2613419;54;20415;-65
2024/04/14 11:38:36;;;;;;;89.80;84.60;;;24.50;1.00;;;;;;2611368;47;20436;-65
2024/04/14 11:41:03;;;;;;;89.77;84.57;;;24.40;1.00;;;;;;2614107;39;21140;-65
2024/04/14 11:43:30;;;;;;;88.60;83.50;;;24.40;1.00;;;;;;2613167;47;20419;-65
2024/04/14 11:45:56;;;;;;;89.40;84.30;;;24.30;1.00;;;;;;2613067;54;20411;-64
2024/04/14 11:48:24;;;;;;;89.23;84.03;;;24.10;1.00;;;;;;2612527;54;21125;-63
2024/04/14 11:50:52;;;;;;;89.90;84.70;;;24.10;1.00;;;;;;2612729;54;20422;-61
2024/04/14 11:53:18;;;;;;;72.77;69.47;;;24.10;1.00;;;;;;2613183;54;20498;-72
2024/04/14 11:55:44;;;;;;;75.87;72.33;;;24.20;1.00;;;;;;2614338;31;21007;-67
2024/04/14 11:58:12;;;;;;;75.33;71.83;;;24.20;1.00;;;;;;2613144;54;20399;-68
2024/04/14 12:00:41;;;;;;;76.03;72.43;;;24.20;1.00;;;;;;2611901;54;20163;-71
2024/04/14 12:03:07;;;;;;;76.00;72.40;;;24.20;1.00;;;;;;2613397;47;20467;-68
2024/04/14 12:05:33;;;;;;;76.47;72.87;;;24.20;1.00;;;;;;2612890;54;20419;-71
2024/04/14 12:07:59;;;;;;;77.43;73.73;;;24.10;1.00;;;;;;2613223;54;20391;-68
2024/04/14 12:10:25;;;;;;;78.07;74.37;;;24.10;1.00;;;;;;2613410;54;20170;-68
2024/04/14 12:12:51;;;;;;;76.97;73.30;;;24.10;1.00;;;;;;2612899;49;20263;-68
2024/04/14 12:15:17;;;;;;;76.67;73.07;;;24.00;1.00;;;;;;2613121;47;20166;-68
2024/04/14 12:17:43;;;;;;;76.90;73.30;;;24.00;1.00;;;;;;2612914;54;20966;-68
2024/04/14 12:20:09;;;;;;;78.33;74.63;;;23.90;1.00;;;;;;2613044;54;20449;-68
2024/04/14 12:22:35;;;;;;;76.43;72.83;;;23.90;1.00;;;;;;2613436;47;20319;-71
2024/04/14 12:25:01;;;;;;;76.03;72.43;;;24.00;1.00;;;;;;2613983;54;20423;-70
2024/04/14 12:27:26;;;;;;;76.90;73.30;;;24.00;1.00;;;;;;2613659;54;20423;-71
2024/04/14 12:29:53;;;;;;;78.00;74.30;;;23.90;1.00;;;;;;2613117;54;21361;-68
2024/04/14 12:32:19;;;;;;;79.23;75.43;;;23.90;1.00;;;;;;2613354;54;20629;-67